This is the latest recevied weather packets stored in our database for station/object OK1ZDJ-13. If no packets are shown the sender has not sent any weather packets the latest 10 day(s).
| Time | Temp. | Humidity | Pressure | Rain* | Wind** | Luminosity | Snow |
|---|---|---|---|---|---|---|---|
| 1777310841 | 16.67° C | 34% | 1021.7 hPa | - | - | - | - |
| 1777310241 | 17.22° C | 30% | 1021.6 hPa | - | - | - | - |
| 1777309641 | 17.78° C | 26% | 1021.6 hPa | - | - | - | - |
| 1777309041 | 18.33° C | 26% | 1021.7 hPa | - | - | - | - |
| 1777307841 | 18.33° C | 24% | 1021.8 hPa | - | - | - | - |
| 1777306041 | 19.44° C | 22% | 1021.9 hPa | - | - | - | - |
| 1777305441 | 19.44° C | 22% | 1022 hPa | - | - | - | - |
| 1777304841 | 19.44° C | 23% | 1022 hPa | - | - | - | - |
| 1777304246 | 20° C | 21% | 1022.1 hPa | - | - | - | - |
| 1777303040 | 21.11° C | 19% | 1022.3 hPa | - | - | - | - |
| 1777302440 | 21.67° C | 18% | 1022.3 hPa | - | - | - | - |
| 1777301843 | 21.67° C | 20% | 1022.5 hPa | - | - | - | - |
| 1777301240 | 20° C | 20% | 1022.5 hPa | - | - | - | - |
| 1777300639 | 18.89° C | 22% | 1022.6 hPa | - | - | - | - |
| 1777300040 | 17.78° C | 23% | 1022.6 hPa | - | - | - | - |
| 1777299440 | 17.22° C | 24% | 1022.8 hPa | - | - | - | - |
| 1777298840 | 17.22° C | 26% | 1022.8 hPa | - | - | - | - |
| 1777298239 | 16.67° C | 24% | 1022.9 hPa | - | - | - | - |
| 1777297639 | 16.67° C | 23% | 1023 hPa | - | - | - | - |
| 1777297039 | 16.67° C | 23% | 1023.1 hPa | - | - | - | - |
| 1777296439 | 16.67° C | 23% | 1023.2 hPa | - | - | - | - |
| 1777295839 | 16.67° C | 24% | 1023.2 hPa | - | - | - | - |
| 1777295239 | 16.11° C | 25% | 1023.4 hPa | - | - | - | - |
| 1777294040 | 16.11° C | 26% | 1023.6 hPa | - | - | - | - |
| 1777293439 | 16.11° C | 24% | 1023.6 hPa | - | - | - | - |
* Rain since midnight (hover to see other rain measurements)
** Current wind speed in m/s (hover to see current wind gust speed)